Time;durP1;ratioP1;P1;durP2;ratioP2;P2;SDS_P1;SDS_P2;PMS_P1;PMS_P2;Temp;Humidity;BMP_temperature;BMP_pressure;BME280_temperature;BME280_humidity;BME280_pressure;Samples;Min_cycle;Max_cycle;Signal;HPM_P1;HPM_P2
2022/02/24 00:00:55;;;;;;;34.27;19.77;;;;;;;3.37;73.69;94964.47;1697463;83;21547;-49
2022/02/24 00:03:23;;;;;;;33.80;20.30;;;;;;;3.35;73.96;94960.81;1671304;83;20980;-52
2022/02/24 00:05:51;;;;;;;34.38;21.10;;;;;;;3.40;74.26;94971.86;1686946;83;21104;-51
2022/02/24 00:08:18;;;;;;;34.80;20.08;;;;;;;3.53;74.31;94965.57;1673454;83;21036;-48
2022/02/24 00:10:44;;;;;;;30.27;19.23;;;;;;;3.62;73.92;94968.05;1685807;83;20997;-50
2022/02/24 00:13:13;;;;;;;37.50;20.85;;;;;;;3.70;73.64;94974.98;1662673;83;21087;-48
2022/02/24 00:15:40;;;;;;;39.20;26.02;;;;;;;3.70;73.32;94969.54;1701082;83;21102;-50
2022/02/24 00:18:07;;;;;;;42.90;25.70;;;;;;;3.74;73.64;94968.17;1678881;83;21092;-49
2022/02/24 00:20:33;;;;;;;39.80;22.87;;;;;;;3.83;73.57;94965.19;1691330;83;21070;-49
2022/02/24 00:23:01;;;;;;;68.20;39.38;;;;;;;3.94;73.08;94971.92;1687230;83;21622;-49
2022/02/24 00:25:28;;;;;;;71.55;42.33;;;;;;;3.91;72.55;94970.01;1697788;83;21994;-50
2022/02/24 00:27:55;;;;;;;71.02;42.08;;;;;;;3.74;72.56;94967.59;1669893;83;21022;-49
2022/02/24 00:30:21;;;;;;;74.25;43.15;;;;;;;3.60;72.82;94963.59;1679862;83;21484;-48
2022/02/24 00:32:48;;;;;;;84.17;46.90;;;;;;;3.58;73.23;94968.66;1700419;83;20980;-50
2022/02/24 00:35:17;;;;;;;92.33;57.75;;;;;;;3.64;73.54;94973.86;1701204;83;21042;-48
2022/02/24 00:37:44;;;;;;;68.90;40.90;;;;;;;3.71;73.25;94961.56;1687979;83;21156;-49
2022/02/24 00:40:12;;;;;;;69.30;41.75;;;;;;;3.79;72.92;94967.74;1672381;83;21060;-50
2022/02/24 00:42:39;;;;;;;58.35;35.60;;;;;;;3.70;72.87;94957.30;1697641;83;21031;-49
2022/02/24 00:45:08;;;;;;;52.08;29.35;;;;;;;3.70;73.21;94955.18;1701322;83;21082;-49
2022/02/24 00:47:34;;;;;;;48.68;27.82;;;;;;;3.65;73.01;94957.73;1690325;83;21465;-50
2022/02/24 00:50:01;;;;;;;47.15;28.40;;;;;;;3.63;73.22;94963.36;1699782;83;21163;-49
2022/02/24 00:52:28;;;;;;;45.88;27.35;;;;;;;3.60;73.54;94955.44;1704579;83;21020;-52
2022/02/24 00:54:55;;;;;;;40.78;24.10;;;;;;;3.64;73.22;94963.55;1683028;83;21448;-49
2022/02/24 00:57:22;;;;;;;37.23;23.42;;;;;;;3.62;73.06;94962.61;1701054;83;20953;-50
2022/02/24 00:59:49;;;;;;;49.20;29.40;;;;;;;3.62;73.46;94961.25;1688333;83;20968;-49
2022/02/24 01:02:16;;;;;;;60.98;39.18;;;;;;;3.69;73.21;94961.80;1692871;83;21850;-50
2022/02/24 01:04:43;;;;;;;87.08;45.12;;;;;;;3.61;73.04;94967.07;1681004;83;21036;-50
2022/02/24 01:07:10;;;;;;;73.15;44.08;;;;;;;3.51;73.40;94963.84;1688487;83;20966;-50
2022/02/24 01:09:37;;;;;;;68.37;39.42;;;;;;;3.51;73.42;94969.28;1665406;83;21061;-49
2022/02/24 01:12:05;;;;;;;77.03;42.75;;;;;;;3.46;73.29;94966.19;1667493;84;21103;-48
2022/02/24 01:14:32;;;;;;;67.85;40.17;;;;;;;3.40;73.48;94974.58;1699461;83;21172;-49
2022/02/24 01:17:00;;;;;;;69.67;37.95;;;;;;;3.40;73.67;94973.22;1696890;83;21115;-50
2022/02/24 01:19:27;;;;;;;70.60;39.00;;;;;;;3.33;73.75;94973.23;1677681;84;21603;-49
2022/02/24 01:21:54;;;;;;;62.05;35.78;;;;;;;3.28;73.93;94973.66;1650687;83;21023;-50
2022/02/24 01:24:21;;;;;;;58.75;32.10;;;;;;;3.26;74.12;94974.64;1662064;83;20957;-48
2022/02/24 01:26:48;;;;;;;60.10;31.42;;;;;;;3.15;74.18;94969.81;1679850;83;21143;-50
2022/02/24 01:29:15;;;;;;;55.00;31.70;;;;;;;3.03;74.53;94964.83;1695194;83;21016;-49
2022/02/24 01:31:42;;;;;;;63.40;34.38;;;;;;;2.96;74.81;94966.20;1670423;83;21605;-48
2022/02/24 01:34:08;;;;;;;74.87;41.58;;;;;;;2.97;75.45;94976.69;1704300;83;21504;-48
2022/02/24 01:36:35;;;;;;;77.45;41.98;;;;;;;3.00;75.44;94973.17;1694097;83;20972;-49
2022/02/24 01:39:03;;;;;;;60.70;36.15;;;;;;;3.09;75.84;94976.23;1707377;83;21120;-49
2022/02/24 01:41:31;;;;;;;68.37;40.10;;;;;;;3.16;75.48;94976.80;1691189;83;21001;-48
2022/02/24 01:44:09;;;;;;;60.35;33.88;;;;;;;3.16;75.61;94983.02;1677689;83;21001;-48
2022/02/24 01:49:48;;;;;;;60.40;33.85;;;;;;;3.38;75.48;94966.81;1677671;83;20976;-48
2022/02/24 01:52:15;;;;;;;51.90;27.10;;;;;;;3.44;75.35;94973.97;1687088;83;21771;-49
2022/02/24 01:54:43;;;;;;;46.75;26.68;;;;;;;3.49;75.01;94971.02;1698072;83;21033;-49
2022/02/24 01:57:10;;;;;;;41.68;24.67;;;;;;;3.44;74.84;94977.45;1700452;83;21737;-48
2022/02/24 01:59:36;;;;;;;37.73;23.77;;;;;;;3.41;75.07;94978.25;1700387;83;21032;-49
2022/02/24 02:02:07;;;;;;;50.25;31.12;;;;;;;3.48;75.41;94980.16;1692704;83;21084;-49
2022/02/24 02:04:34;;;;;;;49.38;31.15;;;;;;;3.59;75.05;94974.28;1689319;83;21077;-49
2022/02/24 02:07:01;;;;;;;48.05;29.75;;;;;;;3.63;74.78;94976.39;1694380;83;21090;-49
2022/02/24 02:09:27;;;;;;;51.40;30.95;;;;;;;3.59;74.59;94978.94;1686396;83;21043;-49
2022/02/24 02:11:54;;;;;;;46.80;29.20;;;;;;;3.55;75.23;94975.47;1694353;83;21064;-49
2022/02/24 02:14:21;;;;;;;48.92;28.83;;;;;;;3.65;75.24;94976.02;1680735;83;20964;-48
2022/02/24 02:16:50;;;;;;;60.80;31.52;;;;;;;3.68;74.85;94967.80;1693278;83;21000;-49
2022/02/24 02:19:18;;;;;;;51.75;28.47;;;;;;;3.68;74.53;94980.05;1689736;83;21575;-49
2022/02/24 02:21:45;;;;;;;48.17;27.50;;;;;;;3.71;74.73;94979.25;1694752;83;21098;-48
2022/02/24 02:24:12;;;;;;;47.73;29.10;;;;;;;3.77;74.73;94983.13;1679706;83;21715;-48
2022/02/24 02:26:39;;;;;;;68.22;43.48;;;;;;;3.84;74.39;94983.06;1688311;83;20957;-49
2022/02/24 02:29:09;;;;;;;82.65;49.00;;;;;;;3.81;74.27;94975.70;1712005;83;21184;-48
2022/02/24 02:31:37;;;;;;;111.25;62.03;;;;;;;3.80;74.11;94985.04;1695867;84;21053;-49
2022/02/24 02:34:09;;;;;;;69.70;40.98;;;;;;;3.77;74.17;94987.20;1680817;83;21147;-49
2022/02/24 02:36:36;;;;;;;57.13;34.90;;;;;;;3.75;74.36;94985.47;1713236;83;21515;-49
2022/02/24 02:39:05;;;;;;;58.15;34.18;;;;;;;3.74;74.25;94988.58;1706139;83;21115;-50
2022/02/24 02:41:33;;;;;;;59.73;35.68;;;;;;;3.71;74.15;94993.45;1677908;83;21172;-48
2022/02/24 02:44:00;;;;;;;49.77;31.30;;;;;;;3.73;74.35;94993.23;1696293;83;21095;-49
2022/02/24 02:46:27;;;;;;;52.25;32.63;;;;;;;3.72;74.27;94988.95;1693602;83;21020;-49
2022/02/24 02:48:54;;;;;;;50.38;29.87;;;;;;;3.73;74.51;94994.58;1712293;83;21008;-48
2022/02/24 02:51:23;;;;;;;38.30;25.48;;;;;;;3.71;74.42;94998.30;1706892;83;21027;-48
2022/02/24 02:53:49;;;;;;;38.15;24.37;;;;;;;3.76;74.73;95001.19;1696883;83;21810;-49
2022/02/24 02:56:16;;;;;;;35.83;23.85;;;;;;;3.79;74.56;95008.55;1663481;83;21016;-49
2022/02/24 02:58:43;;;;;;;45.30;25.97;;;;;;;3.85;74.29;95005.62;1702938;83;21020;-49
2022/02/24 03:01:09;;;;;;;44.50;30.45;;;;;;;3.89;74.26;95007.13;1696268;83;21074;-49
2022/02/24 03:03:36;;;;;;;54.63;34.75;;;;;;;3.98;74.47;95012.92;1675380;83;21104;-49
2022/02/24 03:06:03;;;;;;;56.42;35.70;;;;;;;4.09;74.04;95009.52;1700028;83;21159;-49
2022/02/24 03:08:31;;;;;;;56.65;34.18;;;;;;;4.12;73.52;95009.33;1689742;83;21452;-49
2022/02/24 03:10:59;;;;;;;88.90;46.80;;;;;;;4.08;73.22;95004.50;1709221;83;21445;-50
2022/02/24 03:13:25;;;;;;;85.50;44.15;;;;;;;4.02;73.36;95009.58;1716926;83;21228;-50
2022/02/24 03:15:52;;;;;;;80.72;42.55;;;;;;;4.03;73.48;95011.13;1681577;84;21013;-49
2022/02/24 03:18:19;;;;;;;72.75;40.00;;;;;;;4.06;73.55;95010.94;1683577;83;21124;-49
2022/02/24 03:20:46;;;;;;;50.83;30.20;;;;;;;4.12;73.31;95020.21;1695246;83;21532;-49
2022/02/24 03:23:13;;;;;;;53.65;32.33;;;;;;;4.10;73.03;95022.56;1672741;83;20976;-49
2022/02/24 03:25:40;;;;;;;64.65;37.00;;;;;;;4.03;72.98;95022.63;1694809;83;21472;-50
2022/02/24 03:28:06;;;;;;;48.08;27.80;;;;;;;3.99;73.33;95019.13;1678696;83;21020;-48
2022/02/24 03:30:34;;;;;;;48.73;27.40;;;;;;;4.01;73.57;95023.01;1688422;83;21193;-49
2022/02/24 03:33:02;;;;;;;60.80;34.15;;;;;;;4.03;73.22;95023.98;1684430;83;21765;-50
2022/02/24 03:35:29;;;;;;;94.92;45.67;;;;;;;4.00;73.32;95022.82;1692664;83;21008;-51
2022/02/24 03:37:56;;;;;;;90.72;43.68;;;;;;;3.98;73.02;95029.25;1697347;83;21011;-48
2022/02/24 03:40:23;;;;;;;57.05;35.60;;;;;;;3.94;73.24;95029.86;1692442;83;20965;-49
2022/02/24 03:42:51;;;;;;;53.10;32.83;;;;;;;3.87;73.22;95034.57;1644823;84;21230;-49
2022/02/24 03:45:17;;;;;;;49.25;30.00;;;;;;;3.75;73.56;95029.00;1662108;84;21135;-49
2022/02/24 03:47:44;;;;;;;55.78;32.90;;;;;;;3.69;73.94;95032.52;1690376;83;21028;-48
2022/02/24 03:50:13;;;;;;;48.15;29.72;;;;;;;3.71;74.65;95040.46;1704623;83;21544;-49
2022/02/24 03:52:41;;;;;;;44.65;28.95;;;;;;;3.75;74.49;95041.24;1710663;83;21464;-48
2022/02/24 03:55:10;;;;;;;50.38;31.05;;;;;;;3.75;74.53;95038.52;1701670;83;21087;-49
2022/02/24 03:57:36;;;;;;;63.15;35.83;;;;;;;3.79;74.48;95038.48;1690450;83;21071;-49
2022/02/24 04:00:06;;;;;;;53.70;33.23;;;;;;;3.81;74.35;95043.73;1687161;83;21098;-49
2022/02/24 04:02:35;;;;;;;51.02;30.65;;;;;;;3.78;74.38;95029.56;1712369;83;21008;-49
2022/02/24 04:05:02;;;;;;;48.73;29.20;;;;;;;3.75;74.50;95037.73;1693218;83;21021;-49
2022/02/24 04:07:29;;;;;;;38.85;23.20;;;;;;;3.75;74.55;95045.32;1690009;83;21211;-49
2022/02/24 04:09:56;;;;;;;42.67;24.72;;;;;;;3.70;74.35;95047.67;1678248;83;21068;-49
2022/02/24 04:12:23;;;;;;;45.70;25.35;;;;;;;3.62;74.73;95052.37;1685567;83;21044;-50
2022/02/24 04:14:49;;;;;;;60.52;30.75;;;;;;;3.60;74.69;95047.91;1705310;83;20976;-48
2022/02/24 04:17:16;;;;;;;50.28;29.40;;;;;;;3.61;75.01;95053.54;1689471;83;21020;-49
2022/02/24 04:19:45;;;;;;;45.33;27.35;;;;;;;3.66;75.30;95050.41;1711094;83;21056;-50
2022/02/24 04:22:11;;;;;;;66.50;35.17;;;;;;;3.78;75.25;95052.69;1698480;83;21080;-50
2022/02/24 04:24:38;;;;;;;73.47;40.30;;;;;;;3.84;74.73;95053.81;1683291;83;21051;-49
2022/02/24 04:27:06;;;;;;;85.50;43.52;;;;;;;3.86;74.66;95054.79;1694700;83;21020;-49
2022/02/24 04:29:33;;;;;;;67.10;37.13;;;;;;;3.93;74.53;95050.09;1690326;83;20974;-50
2022/02/24 04:32:00;;;;;;;72.78;39.23;;;;;;;3.94;74.19;95054.36;1672457;83;21219;-54
2022/02/24 04:34:26;;;;;;;81.47;46.42;;;;;;;3.91;74.01;95056.48;1712969;83;21001;-50
2022/02/24 04:36:53;;;;;;;104.15;57.60;;;;;;;3.95;74.15;95050.46;1687656;83;21595;-51
2022/02/24 04:39:20;;;;;;;88.55;50.33;;;;;;;3.93;73.67;95051.45;1681644;83;21000;-48
2022/02/24 04:41:47;;;;;;;106.10;59.27;;;;;;;3.93;74.16;95058.25;1701101;83;20980;-49
2022/02/24 04:44:15;;;;;;;90.57;48.10;;;;;;;4.00;74.16;95058.20;1683095;83;21069;-50
2022/02/24 04:46:42;;;;;;;79.70;46.02;;;;;;;4.07;73.68;95060.88;1692275;83;20985;-50
2022/02/24 04:49:08;;;;;;;73.80;38.80;;;;;;;4.09;73.44;95067.30;1654877;83;21011;-49
2022/02/24 04:51:36;;;;;;;73.62;40.65;;;;;;;4.06;73.22;95069.45;1708355;83;21079;-49
2022/02/24 04:54:03;;;;;;;74.90;42.48;;;;;;;4.03;73.00;95074.34;1680505;83;21017;-50
2022/02/24 04:56:29;;;;;;;77.55;45.20;;;;;;;3.87;72.97;95081.59;1698839;83;21137;-50
2022/02/24 04:58:56;;;;;;;133.12;63.73;;;;;;;3.78;73.45;95085.91;1681406;83;21206;-50
2022/02/24 05:01:23;;;;;;;152.50;74.62;;;;;;;3.80;73.86;95084.35;1693984;83;21492;-49
2022/02/24 05:03:49;;;;;;;118.40;61.40;;;;;;;3.82;73.67;95079.29;1696808;83;21023;-51
2022/02/24 05:06:17;;;;;;;107.12;59.70;;;;;;;3.84;73.66;95091.91;1689068;83;21063;-52
2022/02/24 05:08:43;;;;;;;102.85;56.02;;;;;;;3.86;73.93;95087.45;1671511;83;21230;-51
2022/02/24 05:11:10;;;;;;;114.45;57.62;;;;;;;3.87;73.67;95092.47;1688190;83;21107;-50
2022/02/24 05:13:38;;;;;;;88.78;54.20;;;;;;;3.93;74.14;95093.63;1697218;83;21032;-51
2022/02/24 05:16:05;;;;;;;92.60;52.40;;;;;;;4.01;73.63;95095.70;1697455;83;21035;-51
2022/02/24 05:18:32;;;;;;;74.77;41.42;;;;;;;3.95;73.44;95100.02;1691803;83;21024;-52
2022/02/24 05:20:59;;;;;;;67.75;37.63;;;;;;;3.90;73.24;95099.84;1690567;83;21121;-53
2022/02/24 05:23:26;;;;;;;55.20;32.95;;;;;;;3.85;73.33;95098.14;1675880;83;21127;-54
2022/02/24 05:25:52;;;;;;;88.40;60.05;;;;;;;3.80;73.47;95091.73;1712902;83;21024;-51
2022/02/24 05:28:19;;;;;;;59.85;38.70;;;;;;;3.77;73.98;95096.03;1677280;83;21016;-52
2022/02/24 05:30:45;;;;;;;66.55;37.88;;;;;;;3.80;74.06;95090.37;1665066;83;21475;-51
2022/02/24 05:33:15;;;;;;;66.92;38.70;;;;;;;3.81;73.99;95094.06;1668729;83;21167;-51
2022/02/24 05:35:41;;;;;;;53.60;30.48;;;;;;;3.87;74.29;95092.47;1689607;83;20969;-50
2022/02/24 05:38:09;;;;;;;81.45;45.45;;;;;;;3.94;73.75;95103.34;1682807;83;21000;-51
2022/02/24 05:40:37;;;;;;;78.62;44.10;;;;;;;3.95;73.71;95106.83;1681187;84;21084;-50
2022/02/24 05:43:03;;;;;;;96.45;55.28;;;;;;;4.00;73.56;95108.55;1673611;83;21025;-51
2022/02/24 05:45:30;;;;;;;144.00;79.45;;;;;;;3.89;73.21;95114.63;1686081;83;21153;-51
2022/02/24 05:47:57;;;;;;;103.40;58.58;;;;;;;3.77;73.55;95118.37;1690675;83;21503;-52
2022/02/24 05:50:23;;;;;;;98.52;54.08;;;;;;;3.78;73.96;95117.98;1700470;83;20964;-51
2022/02/24 05:52:50;;;;;;;91.85;54.40;;;;;;;3.77;73.75;95121.88;1686555;83;21544;-52
2022/02/24 05:55:17;;;;;;;95.25;52.75;;;;;;;3.68;73.72;95126.95;1669889;83;21162;-52
2022/02/24 05:57:44;;;;;;;85.05;50.08;;;;;;;3.63;74.00;95119.20;1675928;83;21135;-51
2022/02/24 06:00:13;;;;;;;76.17;47.98;;;;;;;3.64;74.25;95127.55;1692439;84;20973;-51
2022/02/24 06:02:42;;;;;;;79.42;49.70;;;;;;;3.71;74.49;95134.31;1691050;83;20993;-54
2022/02/24 06:05:10;;;;;;;83.55;52.70;;;;;;;3.70;74.43;95131.41;1697424;83;21024;-52
2022/02/24 06:07:37;;;;;;;80.17;48.90;;;;;;;3.66;74.40;95134.73;1704916;83;21035;-53
2022/02/24 06:10:06;;;;;;;73.28;44.63;;;;;;;3.61;74.67;95133.78;1692007;83;21586;-53
2022/02/24 06:12:33;;;;;;;77.65;46.53;;;;;;;3.65;74.82;95134.55;1683953;83;20981;-52
2022/02/24 06:14:59;;;;;;;76.00;44.00;;;;;;;3.68;74.87;95139.19;1707588;83;21103;-54
2022/02/24 06:17:26;;;;;;;72.35;42.70;;;;;;;3.75;74.61;95140.55;1701178;83;21040;-58
2022/02/24 06:19:54;;;;;;;58.73;38.08;;;;;;;3.80;74.85;95140.13;1687301;83;21509;-57
2022/02/24 06:22:21;;;;;;;70.42;43.92;;;;;;;3.92;75.07;95149.80;1682233;82;21143;-57
2022/02/24 06:24:48;;;;;;;86.12;53.65;;;;;;;4.04;74.58;95143.33;1703749;82;21139;-54
2022/02/24 06:27:16;;;;;;;66.00;42.15;;;;;;;4.05;74.27;95146.84;1698683;83;21587;-50
2022/02/24 06:29:43;;;;;;;71.67;45.83;;;;;;;4.09;74.31;95148.36;1701107;83;21030;-52
2022/02/24 06:32:13;;;;;;;90.60;51.45;;;;;;;4.13;74.06;95149.14;1695944;82;21031;-53
2022/02/24 06:34:40;;;;;;;95.03;53.60;;;;;;;4.18;74.11;95158.82;1686622;83;22481;-52
2022/02/24 06:37:08;;;;;;;77.37;47.62;;;;;;;4.17;73.73;95152.62;1698132;83;21006;-52
2022/02/24 06:39:35;;;;;;;83.95;50.95;;;;;;;4.16;73.67;95166.05;1694103;83;21176;-52
2022/02/24 06:42:04;;;;;;;74.10;48.33;;;;;;;4.13;73.55;95158.67;1680711;83;21137;-54
2022/02/24 06:44:32;;;;;;;85.80;53.58;;;;;;;4.12;73.48;95165.29;1686331;83;21104;-54
2022/02/24 06:46:59;;;;;;;75.78;51.48;;;;;;;4.06;73.77;95162.77;1678215;83;21150;-55
2022/02/24 06:49:26;;;;;;;73.50;47.88;;;;;;;4.13;74.06;95165.48;1677279;83;21146;-56
2022/02/24 06:51:55;;;;;;;81.82;48.87;;;;;;;4.20;73.56;95171.48;1715432;82;21057;-52
2022/02/24 06:54:21;;;;;;;94.70;60.65;;;;;;;4.20;73.69;95164.07;1693899;82;21533;-54
2022/02/24 06:56:48;;;;;;;114.20;66.47;;;;;;;4.23;73.67;95168.72;1685892;83;21107;-59
2022/02/24 06:59:16;;;;;;;115.20;76.42;;;;;;;4.29;73.50;95164.44;1694637;82;21138;-53
2022/02/24 07:01:43;;;;;;;97.30;65.52;;;;;;;4.38;73.47;95162.04;1700355;82;21140;-51
2022/02/24 07:04:10;;;;;;;112.52;68.52;;;;;;;4.45;73.10;95166.08;1673096;83;21005;-55
2022/02/24 07:06:37;;;;;;;116.15;70.28;;;;;;;4.44;73.32;95160.44;1675416;83;21566;-55
2022/02/24 07:09:04;;;;;;;103.10;65.42;;;;;;;4.50;72.98;95162.95;1694940;83;21089;-54
2022/02/24 07:11:31;;;;;;;99.80;60.33;;;;;;;4.45;72.85;95166.08;1691450;83;21107;-58
2022/02/24 07:13:58;;;;;;;95.70;61.65;;;;;;;4.35;72.75;95168.86;1674928;82;21047;-60
2022/02/24 07:16:29;;;;;;;66.57;45.35;;;;;;;4.34;73.27;95169.45;1702300;82;21083;-58
2022/02/24 07:18:55;;;;;;;71.87;45.43;;;;;;;4.49;73.07;95173.66;1684684;82;21045;-58
2022/02/24 07:21:22;;;;;;;67.53;44.42;;;;;;;4.59;72.70;95170.69;1690391;82;21094;-59
2022/02/24 07:23:50;;;;;;;77.20;49.75;;;;;;;4.66;72.46;95170.06;1708570;82;21385;-57
2022/02/24 07:26:23;;;;;;;89.30;56.75;;;;;;;4.67;72.38;95169.45;1698126;82;21656;-61
2022/02/24 07:28:52;;;;;;;69.60;46.05;;;;;;;4.71;72.59;95171.56;1678448;83;21046;-58
2022/02/24 07:31:19;;;;;;;72.58;48.02;;;;;;;4.84;72.21;95179.47;1697192;82;21104;-58
2022/02/24 07:33:45;;;;;;;69.95;47.48;;;;;;;4.83;71.44;95177.31;1708670;82;22327;-61
2022/02/24 07:36:13;;;;;;;76.40;48.85;;;;;;;4.81;71.47;95176.19;1666204;83;21107;-59
2022/02/24 07:38:40;;;;;;;72.15;47.58;;;;;;;4.84;71.55;95175.38;1700953;82;21240;-57
2022/02/24 07:41:07;;;;;;;72.67;49.30;;;;;;;4.92;71.16;95176.87;1667832;82;21452;-58
2022/02/24 07:43:36;;;;;;;109.55;69.58;;;;;;;4.91;71.00;95184.29;1713172;82;21250;-55
2022/02/24 07:46:03;;;;;;;84.20;57.48;;;;;;;4.89;71.14;95188.00;1698590;82;21081;-56
2022/02/24 07:48:30;;;;;;;80.17;54.03;;;;;;;4.90;71.03;95186.83;1701399;82;21157;-57
2022/02/24 07:50:57;;;;;;;88.50;57.85;;;;;;;4.93;71.20;95187.39;1687422;82;21188;-52
2022/02/24 07:53:24;;;;;;;79.30;53.92;;;;;;;5.04;71.40;95192.19;1674794;83;21118;-57
2022/02/24 07:55:51;;;;;;;106.63;64.75;;;;;;;5.17;70.90;95193.84;1680349;84;21026;-59
2022/02/24 07:58:18;;;;;;;105.43;66.33;;;;;;;5.16;70.81;95194.41;1691299;83;21134;-55
2022/02/24 08:00:45;;;;;;;117.45;73.97;;;;;;;5.15;70.76;95198.92;1676012;83;21106;-56
2022/02/24 08:03:12;;;;;;;126.67;73.70;;;;;;;5.12;70.62;95195.64;1701924;83;21514;-53
2022/02/24 08:05:39;;;;;;;102.10;59.90;;;;;;;5.13;70.84;95193.86;1676947;83;21143;-55
2022/02/24 08:08:07;;;;;;;109.97;64.80;;;;;;;5.19;70.60;95192.84;1698301;83;21095;-57
2022/02/24 08:10:35;;;;;;;129.53;78.67;;;;;;;5.19;70.25;95199.06;1693873;82;21043;-53
2022/02/24 08:13:02;;;;;;;135.12;86.12;;;;;;;5.13;70.45;95197.95;1693286;83;21218;-57
2022/02/24 08:15:30;;;;;;;119.02;73.90;;;;;;;5.13;70.67;95198.55;1700410;83;21086;-57
2022/02/24 08:17:56;;;;;;;98.30;60.43;;;;;;;5.11;70.71;95198.18;1676632;83;20989;-57
2022/02/24 08:20:23;;;;;;;99.45;62.15;;;;;;;5.06;70.80;95199.37;1706445;83;21083;-53
2022/02/24 08:22:50;;;;;;;89.90;61.33;;;;;;;5.03;70.87;95200.76;1680618;83;21144;-55
2022/02/24 08:25:20;;;;;;;103.42;64.22;;;;;;;5.05;70.94;95199.77;1697141;82;21155;-54
2022/02/24 08:27:47;;;;;;;113.20;70.50;;;;;;;5.03;70.93;95203.48;1691047;82;21105;-53
2022/02/24 08:30:17;;;;;;;116.77;75.87;;;;;;;4.99;70.93;95199.41;1694400;82;21102;-58
2022/02/24 08:32:45;;;;;;;109.83;71.35;;;;;;;4.94;71.10;95207.27;1697038;82;21039;-58
2022/02/24 08:35:13;;;;;;;132.40;78.10;;;;;;;4.91;71.27;95200.64;1691132;82;21160;-55
2022/02/24 08:37:44;;;;;;;128.32;78.65;;;;;;;4.86;71.33;95202.44;1701968;82;21822;-57
2022/02/24 08:40:10;;;;;;;132.97;77.75;;;;;;;4.80;71.62;95204.02;1676246;82;21097;-56
2022/02/24 08:42:39;;;;;;;186.45;103.40;;;;;;;4.73;71.99;95194.53;1685408;83;21143;-57
2022/02/24 08:45:07;;;;;;;167.13;95.42;;;;;;;4.73;72.15;95194.53;1664646;83;21047;-57
2022/02/24 08:47:34;;;;;;;185.63;99.30;;;;;;;4.79;72.28;95190.80;1622175;85;21081;-55
2022/02/24 08:50:06;;;;;;;196.20;104.58;;;;;;;4.82;72.14;95188.03;1628059;85;21482;-59
2022/02/24 08:52:35;;;;;;;185.45;101.38;;;;;;;4.79;72.24;95188.84;1640417;85;21673;-55
2022/02/24 08:55:06;;;;;;;175.70;97.15;;;;;;;4.77;72.39;95187.70;1633135;85;21030;-56
2022/02/24 08:57:33;;;;;;;142.13;82.42;;;;;;;4.82;72.68;95194.84;1637746;85;21178;-56
2022/02/24 09:00:04;;;;;;;115.10;64.25;;;;;;;4.93;72.54;95192.08;1649799;85;21078;-57
2022/02/24 09:02:32;;;;;;;89.67;56.53;;;;;;;4.98;72.24;95189.68;1614041;86;21669;-56
2022/02/24 09:04:59;;;;;;;94.45;56.63;;;;;;;4.97;72.13;95187.38;1674185;84;21669;-56
2022/02/24 09:07:26;;;;;;;91.25;52.45;;;;;;;4.93;72.04;95184.66;1649142;85;21611;-53
2022/02/24 09:09:53;;;;;;;89.07;50.90;;;;;;;4.94;72.09;95190.30;1622346;87;21111;-56
2022/02/24 09:12:20;;;;;;;90.83;51.33;;;;;;;4.95;71.99;95189.13;1638700;85;21099;-56
2022/02/24 09:14:47;;;;;;;86.75;47.48;;;;;;;4.95;72.03;95182.31;1688925;83;21162;-57
2022/02/24 09:17:16;;;;;;;79.67;47.30;;;;;;;5.03;71.79;95196.66;1694697;83;21090;-58
2022/02/24 09:19:43;;;;;;;77.00;47.25;;;;;;;5.06;71.52;95195.28;1670842;83;21009;-56
2022/02/24 09:22:12;;;;;;;72.58;45.23;;;;;;;5.09;71.10;95190.39;1666763;83;21112;-57
2022/02/24 09:24:40;;;;;;;73.92;41.75;;;;;;;5.12;70.90;95191.55;1687485;83;21578;-52
2022/02/24 09:27:07;;;;;;;55.25;34.90;;;;;;;5.16;70.88;95193.66;1650921;83;21223;-54
2022/02/24 09:29:37;;;;;;;60.43;35.88;;;;;;;5.23;70.61;95192.23;1697075;82;21075;-59
2022/02/24 09:32:06;;;;;;;57.00;37.05;;;;;;;5.28;70.43;95190.61;1695081;82;21530;-56
2022/02/24 09:34:33;;;;;;;57.55;34.20;;;;;;;5.31;70.34;95197.22;1680007;83;21504;-54
2022/02/24 09:37:00;;;;;;;57.62;37.75;;;;;;;5.33;70.36;95192.14;1695484;83;21010;-55
2022/02/24 09:39:27;;;;;;;71.82;44.45;;;;;;;5.29;70.13;95192.77;1690235;82;21118;-57
2022/02/24 09:41:54;;;;;;;52.67;33.02;;;;;;;5.21;70.08;95192.64;1690579;83;21152;-56
2022/02/24 09:44:21;;;;;;;39.98;25.85;;;;;;;5.23;70.17;95186.95;1688223;83;21100;-55
2022/02/24 09:46:48;;;;;;;46.08;26.90;;;;;;;5.34;69.92;95184.14;1674430;83;21618;-54
2022/02/24 09:49:16;;;;;;;44.42;26.90;;;;;;;5.43;69.48;95186.59;1674030;83;21112;-56
2022/02/24 09:51:45;;;;;;;38.90;25.00;;;;;;;5.51;68.95;95187.30;1703004;82;22153;-56
2022/02/24 09:54:12;;;;;;;38.73;26.82;;;;;;;5.52;68.65;95187.48;1685808;82;21065;-57
2022/02/24 09:56:39;;;;;;;34.70;22.22;;;;;;;5.59;68.34;95183.34;1681565;83;20986;-56
2022/02/24 09:59:06;;;;;;;30.05;18.42;;;;;;;5.72;67.92;95183.79;1682024;82;21104;-54
2022/02/24 10:01:34;;;;;;;27.25;18.45;;;;;;;5.73;67.63;95180.45;1665229;83;21067;-58
2022/02/24 10:04:06;;;;;;;29.98;18.17;;;;;;;5.74;67.50;95182.80;1685446;83;21835;-54
2022/02/24 10:06:57;;;;;;;36.93;24.18;;;;;;;5.79;67.38;95185.10;1703705;82;20946;-57
2022/02/24 10:09:33;;;;;;;40.63;25.32;;;;;;;5.79;67.52;95174.79;1681106;82;21062;-55
2022/02/24 10:12:05;;;;;;;36.05;22.93;;;;;;;5.87;67.50;95168.84;1650688;84;21043;-55
2022/02/24 10:14:33;;;;;;;33.98;16.45;;;;;;;6.02;67.22;95165.36;1704285;82;21143;-61
2022/02/24 10:17:07;;;;;;;25.32;15.83;;;;;;;6.15;66.62;95167.14;1675292;82;21655;-57
2022/02/24 10:19:40;;;;;;;24.43;15.28;;;;;;;6.25;66.05;95160.80;1686937;83;22102;-56
2022/02/24 10:22:31;;;;;;;26.73;15.05;;;;;;;6.32;65.75;95161.30;1677746;83;21098;-57
2022/02/24 10:25:06;;;;;;;32.15;18.30;;;;;;;6.43;65.49;95156.45;1675334;83;22249;-55
2022/02/24 10:27:35;;;;;;;34.85;20.82;;;;;;;6.69;64.94;95163.93;1703282;82;21079;-57
2022/02/24 10:30:09;;;;;;;35.25;21.00;;;;;;;6.84;64.10;95152.95;1708502;82;21150;-57
2022/02/24 10:32:47;;;;;;;30.08;17.35;;;;;;;6.87;63.71;95150.78;1704760;82;21097;-54
2022/02/24 10:35:40;;;;;;;25.40;15.70;;;;;;;6.84;63.56;95148.84;1692624;82;21088;-56
2022/02/24 10:38:12;;;;;;;26.48;13.65;;;;;;;6.78;63.64;95150.51;1685470;82;21444;-55
2022/02/24 10:40:42;;;;;;;22.67;12.73;;;;;;;6.71;63.12;95150.62;1674683;83;21048;-60
2022/02/24 10:43:19;;;;;;;21.57;12.35;;;;;;;6.64;63.08;95148.76;1701854;82;21206;-55
2022/02/24 10:46:02;;;;;;;16.80;10.38;;;;;;;6.67;63.20;95149.91;1695625;82;22047;-60
2022/02/24 10:48:31;;;;;;;19.37;10.80;;;;;;;6.77;62.24;95145.65;1688321;82;21041;-61
2022/02/24 10:51:05;;;;;;;18.50;11.70;;;;;;;6.77;62.05;95140.76;1680203;83;21168;-59
2022/02/24 10:53:33;;;;;;;18.57;9.93;;;;;;;6.74;61.91;95139.61;1703551;83;21070;-60
2022/02/24 10:56:10;;;;;;;23.87;10.30;;;;;;;6.75;61.48;95137.67;1702915;82;21574;-60
2022/02/24 10:58:42;;;;;;;14.15;9.20;;;;;;;6.75;61.70;95139.03;1704215;82;21081;-53
2022/02/24 11:01:18;;;;;;;20.85;12.20;;;;;;;6.70;61.66;95132.06;1682775;82;21174;-53
2022/02/24 11:03:54;;;;;;;28.38;13.80;;;;;;;6.61;62.35;95135.12;1684253;83;22240;-56
2022/02/24 11:06:26;;;;;;;26.37;16.17;;;;;;;6.60;61.92;95131.64;1675015;83;21184;-58
2022/02/24 11:08:55;;;;;;;25.77;14.28;;;;;;;6.66;61.41;95125.13;1673711;82;21151;-55
2022/02/24 11:11:29;;;;;;;20.35;11.00;;;;;;;6.67;62.02;95128.03;1696827;83;21130;-57
2022/02/24 11:13:58;;;;;;;27.00;13.22;;;;;;;6.69;61.39;95122.92;1684513;83;21059;-56
2022/02/24 11:16:26;;;;;;;22.40;13.05;;;;;;;6.81;61.28;95115.50;1705447;83;21050;-56
2022/02/24 11:18:56;;;;;;;36.13;17.45;;;;;;;6.87;60.88;95115.98;1594923;83;25922;-57
2022/02/24 11:21:25;;;;;;;21.37;13.20;;;;;;;6.95;60.67;95113.92;1537004;91;21117;-55
2022/02/24 11:23:56;;;;;;;15.60;9.58;;;;;;;7.09;60.44;95108.98;1558522;91;21201;-56
2022/02/24 11:26:39;;;;;;;14.07;8.15;;;;;;;7.14;60.16;95107.17;1543064;90;21089;-55
2022/02/24 11:29:35;;;;;;;19.92;10.78;;;;;;;7.12;60.20;95110.31;1517210;92;21646;-56
2022/02/24 11:32:13;;;;;;;17.65;9.75;;;;;;;7.14;60.33;95103.82;1545390;91;21077;-60